Time;durP1;ratioP1;P1;durP2;ratioP2;P2;SDS_P1;SDS_P2;PMS_P1;PMS_P2;Temp;Humidity;BMP_temperature;BMP_pressure;BME280_temperature;BME280_humidity;BME280_pressure;Samples;Min_cycle;Max_cycle;Signal;HPM_P1;HPM_P2
2022/07/03 00:01:40;;;;;;;8.93;7.25;;;;;;;22.27;67.89;100384.59;5068204;28;20135;-32
2022/07/03 00:04:06;;;;;;;9.25;6.57;;;;;;;22.29;67.67;100375.31;5086712;28;20107;-28
2022/07/03 00:06:33;;;;;;;8.13;6.72;;;;;;;22.16;68.33;100371.38;5086922;28;20028;-28
2022/07/03 00:08:59;;;;;;;9.37;6.60;;;;;;;22.02;69.00;100369.31;5068565;28;20039;-29
2022/07/03 00:11:25;;;;;;;8.52;6.32;;;;;;;22.13;69.01;100397.22;5068268;28;20379;-28
2022/07/03 00:13:50;;;;;;;7.57;6.20;;;;;;;22.13;68.77;100390.94;5086627;28;20586;-32
2022/07/03 00:16:16;;;;;;;8.52;6.53;;;;;;;22.20;67.48;100394.13;5068659;28;20032;-29
2022/07/03 00:18:43;;;;;;;12.07;7.28;;;;;;;22.51;66.72;100391.09;5068461;28;20690;-29
2022/07/03 00:21:13;;;;;;;9.38;6.88;;;;;;;22.49;65.71;100366.91;5068512;28;20502;-37
2022/07/03 00:23:51;;;;;;;10.82;7.22;;;;;;;22.15;67.87;100388.75;5068136;28;20043;-28
2022/07/03 00:26:19;;;;;;;;;;;;;;;22.43;66.68;100385.22;5087042;28;20101;-28
2022/07/03 00:28:45;;;;;;;10.20;7.68;;;;;;;22.52;66.24;100379.13;5068502;28;19908;-27
2022/07/03 00:31:11;;;;;;;11.45;7.70;;;;;;;22.54;66.23;100371.50;5088803;28;20034;-29
2022/07/03 00:33:38;;;;;;;9.70;7.55;;;;;;;22.31;67.60;100375.84;5071994;28;20115;-32
2022/07/03 00:36:04;;;;;;;9.73;7.85;;;;;;;21.98;68.56;100362.84;5090847;28;20384;-27
2022/07/03 00:38:30;;;;;;;11.45;7.45;;;;;;;22.16;67.96;100368.66;5072048;28;20563;-30
2022/07/03 00:40:55;;;;;;;11.63;8.00;;;;;;;22.13;67.74;100363.78;5090124;28;20113;-28
2022/07/03 00:43:21;;;;;;;11.25;7.57;;;;;;;22.15;67.03;100354.28;5071813;28;20032;-29
2022/07/03 00:45:49;;;;;;;10.18;8.30;;;;;;;21.95;68.27;100357.22;5090449;28;20044;-28
2022/07/03 00:48:17;;;;;;;10.15;8.48;;;;;;;22.08;67.23;100368.16;5090422;28;20073;-28
2022/07/03 00:50:46;;;;;;;11.43;7.72;;;;;;;22.20;67.19;100369.69;5072013;28;20039;-27
2022/07/03 00:53:14;;;;;;;11.07;7.95;;;;;;;22.07;67.39;100352.19;5071689;28;20566;-31
2022/07/03 00:55:42;;;;;;;13.38;9.00;;;;;;;21.83;69.34;100371.16;5089886;28;20081;-28
2022/07/03 00:58:09;;;;;;;10.20;8.20;;;;;;;21.77;69.73;100361.47;5090597;28;20103;-27
2022/07/03 01:00:42;;;;;;;11.55;8.65;;;;;;;21.85;69.06;100363.53;5071624;28;20051;-30
2022/07/03 01:03:14;;;;;;;11.45;8.23;;;;;;;21.41;70.52;100364.44;5090109;28;20023;-27
2022/07/03 01:05:45;;;;;;;12.15;8.20;;;;;;;21.50;70.43;100353.84;5089716;28;20472;-29
2022/07/03 01:08:25;;;;;;;10.60;8.18;;;;;;;21.55;69.98;100360.00;5071673;28;20479;-32
2022/07/03 01:11:17;;;;;;;9.75;8.07;;;;;;;21.58;70.44;100358.66;5071712;28;20570;-28
2022/07/03 01:14:21;;;;;;;10.90;7.60;;;;;;;21.23;71.87;100363.25;5032880;28;20036;-30
2022/07/03 01:17:10;;;;;;;11.23;8.85;;;;;;;21.12;72.50;100351.66;5033534;28;20047;-28
2022/07/03 01:19:41;;;;;;;11.25;9.25;;;;;;;21.25;71.93;100363.78;5071317;28;20024;-28
2022/07/03 01:22:15;;;;;;;13.88;9.43;;;;;;;21.53;70.69;100355.97;5071416;28;20487;-27
2022/07/03 01:25:12;;;;;;;13.23;9.10;;;;;;;20.84;73.23;100362.13;5089785;28;20036;-31
2022/07/03 01:27:55;;;;;;;11.10;8.25;;;;;;;20.85;72.84;100362.94;5089329;28;20020;-31
2022/07/03 01:30:22;;;;;;;15.27;9.43;;;;;;;21.05;72.47;100364.72;5071270;28;20036;-28
2022/07/03 01:32:57;;;;;;;13.35;9.60;;;;;;;20.98;72.86;100369.63;5070900;28;20114;-30
2022/07/03 01:35:28;;;;;;;13.23;9.73;;;;;;;20.79;73.51;100348.59;5071151;28;20552;-32
2022/07/03 01:37:54;;;;;;;13.43;9.48;;;;;;;21.09;72.14;100346.00;5071194;28;20097;-29
2022/07/03 01:40:23;;;;;;;12.07;8.18;;;;;;;21.02;71.78;100339.00;5070893;28;20051;-28
2022/07/03 01:42:49;;;;;;;13.23;9.60;;;;;;;21.04;71.79;100357.66;5088208;28;20058;-28
2022/07/03 01:45:15;;;;;;;10.05;8.25;;;;;;;20.91;71.96;100358.31;5070906;28;20546;-27
2022/07/03 01:47:45;;;;;;;10.73;8.07;;;;;;;20.31;74.67;100363.69;5070966;28;20020;-28
2022/07/03 01:50:12;;;;;;;10.23;8.07;;;;;;;20.24;74.52;100359.38;5071200;28;20024;-27
2022/07/03 01:52:42;;;;;;;10.38;7.80;;;;;;;20.46;73.67;100372.59;5070778;28;20028;-30
2022/07/03 01:55:09;;;;;;;11.88;8.43;;;;;;;20.52;74.15;100372.56;5089105;28;20043;-28
2022/07/03 01:57:43;;;;;;;12.05;8.98;;;;;;;20.37;75.61;100368.84;5070503;28;20020;-28
2022/07/03 02:00:10;;;;;;;11.95;8.63;;;;;;;20.42;74.34;100341.72;5070584;28;20064;-32
2022/07/03 02:02:43;;;;;;;12.40;8.60;;;;;;;20.28;74.74;100333.38;5054095;28;20078;-29
2022/07/03 02:05:22;;;;;;;11.65;8.68;;;;;;;20.53;74.24;100356.03;5089016;28;20035;-32
2022/07/03 02:08:00;;;;;;;10.05;8.60;;;;;;;20.26;75.22;100356.41;5088716;28;20020;-28
2022/07/03 02:10:29;;;;;;;11.75;9.23;;;;;;;20.39;73.97;100345.00;5070414;28;20032;-28
2022/07/03 02:13:02;;;;;;;11.32;8.73;;;;;;;20.28;74.78;100348.81;5070611;28;20039;-28
2022/07/03 02:15:35;;;;;;;11.85;8.55;;;;;;;19.90;76.92;100364.66;5088644;28;20483;-30
2022/07/03 02:18:28;;;;;;;10.75;8.10;;;;;;;19.68;77.93;100344.06;5088595;28;20089;-28
2022/07/03 02:21:15;;;;;;;12.43;8.75;;;;;;;20.20;75.57;100352.91;5078756;28;20052;-29
2022/07/03 02:24:04;;;;;;;10.80;8.40;;;;;;;20.34;75.57;100353.13;5087840;28;20054;-27
2022/07/03 02:26:37;;;;;;;15.30;9.02;;;;;;;20.37;75.23;100352.59;5088305;28;20342;-28
2022/07/03 02:29:05;;;;;;;10.98;8.32;;;;;;;19.98;76.63;100345.13;5088398;28;20031;-31
2022/07/03 02:31:39;;;;;;;13.70;8.45;;;;;;;20.47;74.86;100360.66;5070091;28;20086;-29
2022/07/03 02:34:06;;;;;;;13.10;8.27;;;;;;;20.52;74.27;100361.75;5070239;28;20419;-27
2022/07/03 02:36:34;;;;;;;11.70;8.45;;;;;;;20.60;73.67;100372.03;5088026;28;20088;-28
2022/07/03 02:38:59;;;;;;;23.15;10.88;;;;;;;20.22;75.30;100374.28;5069950;28;20040;-29
2022/07/03 02:41:37;;;;;;;13.90;9.43;;;;;;;20.03;76.38;100372.19;5066037;28;20055;-29
2022/07/03 02:44:14;;;;;;;12.15;8.75;;;;;;;19.85;77.00;100380.88;5066524;28;20500;-30
2022/07/03 02:46:49;;;;;;;13.93;9.00;;;;;;;20.05;76.42;100372.72;5068011;28;20041;-31
2022/07/03 02:49:30;;;;;;;12.32;9.23;;;;;;;20.04;75.87;100373.81;5066365;28;20029;-28
2022/07/03 02:52:45;;;;;;;12.45;9.13;;;;;;;20.09;75.82;100370.28;5066075;28;20029;-28
2022/07/03 02:55:26;;;;;;;11.07;9.18;;;;;;;20.18;75.28;100381.34;5038678;28;20033;-30
2022/07/03 02:58:05;;;;;;;12.93;9.68;;;;;;;20.13;75.42;100376.75;5066235;28;20041;-28
2022/07/03 03:00:34;;;;;;;12.00;9.40;;;;;;;19.83;76.49;100370.31;5066008;28;20024;-30
2022/07/03 03:03:01;;;;;;;12.68;9.43;;;;;;;19.84;76.67;100376.56;5066181;28;20547;-28
2022/07/03 03:05:39;;;;;;;11.43;9.10;;;;;;;19.67;76.67;100372.19;5065978;28;20029;-29
2022/07/03 03:08:29;;;;;;;10.93;8.07;;;;;;;18.87;77.56;100364.56;5066218;28;20483;-27
2022/07/03 03:11:00;;;;;;;10.65;8.27;;;;;;;18.87;78.03;100375.38;5067410;28;20129;-31
2022/07/03 03:13:31;;;;;;;11.93;8.30;;;;;;;19.58;75.56;100379.25;5065852;28;20119;-27
2022/07/03 03:16:04;;;;;;;15.75;10.30;;;;;;;19.59;76.05;100370.03;5065972;28;20024;-33
2022/07/03 03:18:33;;;;;;;15.00;10.18;;;;;;;19.51;77.25;100373.28;5067365;28;20541;-31
2022/07/03 03:21:00;;;;;;;15.15;11.60;;;;;;;19.70;76.96;100365.44;5067342;28;20358;-29
2022/07/03 03:23:49;;;;;;;14.88;11.82;;;;;;;19.94;76.49;100357.59;5065322;28;20032;-30
2022/07/03 03:26:33;;;;;;;16.63;10.73;;;;;;;20.05;76.20;100378.13;5065934;28;20033;-28
2022/07/03 03:28:59;;;;;;;14.50;10.68;;;;;;;19.78;77.69;100361.41;5067077;28;20046;-29
2022/07/03 03:31:27;;;;;;;16.15;11.23;;;;;;;19.78;78.10;100378.47;5065396;28;20029;-28
2022/07/03 03:33:53;;;;;;;15.13;11.05;;;;;;;19.64;79.67;100372.75;5066833;28;20036;-28
2022/07/03 03:36:20;;;;;;;25.73;11.80;;;;;;;19.60;79.05;100368.97;5067121;28;20047;-30
2022/07/03 03:38:47;;;;;;;13.65;9.80;;;;;;;19.54;79.16;100359.22;5065586;28;20037;-31
2022/07/03 03:41:12;;;;;;;14.50;10.40;;;;;;;19.68;78.65;100373.81;5079401;28;20592;-27
2022/07/03 03:43:38;;;;;;;15.40;10.20;;;;;;;19.53;79.08;100360.28;5086841;28;20031;-33
2022/07/03 03:46:04;;;;;;;15.52;10.00;;;;;;;19.35;79.74;100353.56;5087138;28;20032;-32
2022/07/03 03:48:34;;;;;;;15.15;10.35;;;;;;;19.45;79.91;100358.13;5069039;28;20073;-27
2022/07/03 03:51:01;;;;;;;17.67;11.35;;;;;;;19.54;80.12;100382.78;5087233;28;20036;-29
2022/07/03 03:53:28;;;;;;;22.07;11.63;;;;;;;19.66;79.29;100361.66;5068748;28;20106;-28
2022/07/03 03:56:11;;;;;;;19.75;12.23;;;;;;;19.61;80.09;100378.69;5068926;28;20085;-32
2022/07/03 03:58:38;;;;;;;17.90;12.52;;;;;;;19.74;80.06;100365.75;5068823;28;20110;-30
2022/07/03 04:01:05;;;;;;;18.63;12.38;;;;;;;19.86;80.12;100385.22;5068530;28;20035;-27
2022/07/03 04:03:32;;;;;;;17.55;13.32;;;;;;;19.94;79.69;100364.88;5068440;28;20219;-30
2022/07/03 04:05:58;;;;;;;16.38;11.52;;;;;;;20.38;77.96;100381.28;5068029;28;20172;-34
2022/07/03 04:08:24;;;;;;;16.45;12.13;;;;;;;20.92;76.46;100384.31;5068746;28;20040;-28
2022/07/03 04:10:50;;;;;;;13.50;11.45;;;;;;;21.11;74.78;100371.72;5068305;28;20039;-30
2022/07/03 04:13:16;;;;;;;22.98;11.60;;;;;;;21.09;74.90;100371.19;5086629;28;20031;-29
2022/07/03 04:15:42;;;;;;;16.17;11.43;;;;;;;21.44;73.58;100372.06;5068098;28;20086;-28
2022/07/03 04:18:08;;;;;;;18.27;12.05;;;;;;;21.44;72.84;100383.72;5068526;28;20032;-27
2022/07/03 04:20:34;;;;;;;15.98;11.30;;;;;;;21.44;73.74;100369.34;5086761;28;20488;-31
2022/07/03 04:22:59;;;;;;;15.95;11.80;;;;;;;21.43;73.85;100356.84;5086486;28;20027;-27
2022/07/03 04:25:25;;;;;;;14.23;11.13;;;;;;;21.51;74.08;100367.09;5086597;28;20103;-28
2022/07/03 04:27:51;;;;;;;16.33;11.35;;;;;;;21.77;74.21;100383.97;5086324;28;20039;-28
2022/07/03 04:30:17;;;;;;;14.93;11.80;;;;;;;21.85;73.54;100386.06;5086733;28;20425;-32
2022/07/03 04:32:42;;;;;;;17.23;11.70;;;;;;;21.88;72.95;100362.97;5068233;28;20032;-29
2022/07/03 04:35:08;;;;;;;17.95;12.05;;;;;;;21.94;72.71;100364.53;5086753;28;20161;-28
2022/07/03 04:37:34;;;;;;;14.80;11.27;;;;;;;22.05;72.83;100378.81;5086144;28;20032;-32
2022/07/03 04:40:00;;;;;;;17.08;12.73;;;;;;;22.16;73.38;100379.50;5068088;28;20411;-31
2022/07/03 04:42:25;;;;;;;16.25;12.43;;;;;;;22.07;73.52;100371.19;5068025;28;20039;-27
2022/07/03 04:44:51;;;;;;;15.50;11.55;;;;;;;22.28;72.39;100388.09;5086846;28;20028;-29
2022/07/03 04:47:16;;;;;;;17.48;12.45;;;;;;;22.26;72.49;100376.72;5086906;28;20032;-29
2022/07/03 04:49:42;;;;;;;16.17;12.63;;;;;;;22.45;73.12;100382.19;5086331;28;20039;-30
2022/07/03 04:52:08;;;;;;;18.13;12.27;;;;;;;22.70;71.50;100383.78;5086322;28;20438;-28
2022/07/03 04:54:34;;;;;;;15.15;12.35;;;;;;;22.77;71.49;100384.22;5067951;28;20028;-30
2022/07/03 04:56:59;;;;;;;15.75;12.32;;;;;;;22.74;72.46;100386.72;5086152;28;20039;-29
2022/07/03 04:59:25;;;;;;;16.00;12.43;;;;;;;22.93;72.42;100392.19;5086135;28;20093;-27
2022/07/03 05:01:50;;;;;;;18.15;12.52;;;;;;;23.10;71.44;100384.34;5086473;28;20071;-27
2022/07/03 05:04:16;;;;;;;16.10;12.45;;;;;;;23.17;70.44;100381.22;5086299;28;20388;-30
2022/07/03 05:06:42;;;;;;;14.55;11.55;;;;;;;23.19;70.43;100379.84;5067948;28;20039;-28
2022/07/03 05:09:08;;;;;;;14.50;11.50;;;;;;;23.14;70.29;100363.59;5086417;28;20028;-29
2022/07/03 05:11:33;;;;;;;13.98;11.13;;;;;;;23.12;70.83;100384.84;5085827;28;20024;-33
2022/07/03 05:13:59;;;;;;;14.13;11.55;;;;;;;23.04;71.81;100361.84;5086359;28;20063;-29
2022/07/03 05:16:24;;;;;;;14.35;11.23;;;;;;;23.32;70.70;100377.50;5086010;28;20440;-27
2022/07/03 05:18:50;;;;;;;13.35;11.32;;;;;;;23.47;70.79;100385.38;5089107;28;20036;-29
2022/07/03 05:21:15;;;;;;;16.42;11.48;;;;;;;23.56;70.09;100377.34;5089810;28;20094;-29
2022/07/03 05:23:41;;;;;;;14.73;11.30;;;;;;;23.53;70.52;100369.78;5089438;28;20472;-28
2022/07/03 05:26:06;;;;;;;14.35;11.25;;;;;;;23.58;70.32;100381.41;5089806;28;20020;-31
2022/07/03 05:28:32;;;;;;;14.18;11.68;;;;;;;23.80;69.36;100378.06;5089875;28;20032;-28
2022/07/03 05:30:57;;;;;;;14.50;10.93;;;;;;;23.98;69.67;100384.53;5089572;28;20077;-33
2022/07/03 05:33:23;;;;;;;17.15;10.98;;;;;;;23.81;70.27;100362.53;5089173;28;20044;-32
2022/07/03 05:35:48;;;;;;;16.45;11.43;;;;;;;23.98;69.40;100379.06;5089446;28;20085;-29
2022/07/03 05:39:31;;;;;;;16.02;11.07;;;;;;;24.25;69.31;100374.75;5089425;28;20063;-29
2022/07/03 05:40:59;;;;;;;12.23;10.15;;;;;;;23.94;68.49;100366.38;5089030;28;20090;-29
2022/07/03 05:43:24;;;;;;;10.95;9.40;;;;;;;24.23;67.46;100376.97;5089155;28;20055;-28
2022/07/03 05:45:50;;;;;;;15.18;10.40;;;;;;;24.37;66.94;100380.50;5089401;28;20086;-28
2022/07/03 05:48:15;;;;;;;11.65;9.73;;;;;;;24.51;64.66;100366.91;5070844;28;20043;-33
2022/07/03 05:50:41;;;;;;;11.00;8.55;;;;;;;24.37;64.56;100375.06;5089925;28;20107;-29
2022/07/03 05:53:06;;;;;;;13.13;9.93;;;;;;;24.49;65.23;100379.19;5088658;28;20032;-29
2022/07/03 05:55:31;;;;;;;11.93;9.45;;;;;;;24.46;65.18;100365.06;5089018;28;20161;-31
2022/07/03 05:57:57;;;;;;;11.60;9.07;;;;;;;24.86;65.47;100378.94;5089402;28;20043;-29
2022/07/03 06:00:22;;;;;;;12.38;9.38;;;;;;;25.07;63.79;100375.78;5089378;28;20028;-31
2022/07/03 06:02:48;;;;;;;11.88;9.02;;;;;;;24.93;63.45;100362.16;5089208;28;20016;-28
2022/07/03 06:05:13;;;;;;;10.60;9.02;;;;;;;25.10;64.35;100358.78;5089050;28;20028;-27
2022/07/03 06:07:38;;;;;;;11.90;9.35;;;;;;;25.35;62.60;100375.69;5088737;28;20024;-28
2022/07/03 06:10:05;;;;;;;15.30;9.30;;;;;;;25.46;62.80;100363.41;5088743;28;20081;-29
2022/07/03 06:12:30;;;;;;;14.23;9.88;;;;;;;25.61;62.63;100357.53;5088807;28;20071;-28
2022/07/03 06:14:56;;;;;;;12.65;9.90;;;;;;;25.81;62.67;100358.94;5088108;28;20032;-29
2022/07/03 06:17:21;;;;;;;13.30;10.23;;;;;;;26.01;60.81;100375.91;5087830;28;20024;-28
2022/07/03 06:19:47;;;;;;;11.95;9.27;;;;;;;26.11;60.52;100378.34;5069848;28;20063;-28
2022/07/03 06:22:12;;;;;;;12.15;9.38;;;;;;;26.18;59.99;100358.78;5087835;28;20503;-28
2022/07/03 06:24:38;;;;;;;13.77;9.77;;;;;;;26.36;59.58;100371.38;5069525;28;20054;-33
2022/07/03 06:27:04;;;;;;;13.32;9.30;;;;;;;26.30;59.83;100374.59;5088179;28;20131;-28
2022/07/03 06:29:29;;;;;;;11.27;9.07;;;;;;;26.29;59.53;100389.38;5087563;28;20040;-30
2022/07/03 06:31:55;;;;;;;11.38;9.25;;;;;;;26.10;60.00;100370.50;5088009;28;20016;-30
2022/07/03 06:34:20;;;;;;;12.20;9.25;;;;;;;26.23;60.08;100388.69;5087846;28;20045;-27
2022/07/03 06:36:46;;;;;;;14.30;9.75;;;;;;;26.41;60.63;100390.38;5087953;28;20884;-31
2022/07/03 06:39:11;;;;;;;13.20;9.57;;;;;;;26.31;59.65;100370.72;5087584;28;20032;-28
2022/07/03 06:41:37;;;;;;;12.57;10.07;;;;;;;26.74;59.70;100387.25;5087595;28;20488;-28
2022/07/03 06:44:02;;;;;;;10.25;8.68;;;;;;;26.90;57.02;100373.91;5087808;28;20036;-29
2022/07/03 06:46:28;;;;;;;10.02;8.90;;;;;;;27.01;57.12;100386.16;5087787;28;20449;-29
2022/07/03 06:48:53;;;;;;;11.13;9.27;;;;;;;27.05;57.69;100380.81;5087490;28;20475;-37
2022/07/03 06:51:19;;;;;;;10.50;9.32;;;;;;;27.07;56.27;100384.03;5087508;28;20245;-29
2022/07/03 06:53:44;;;;;;;10.68;8.82;;;;;;;27.04;56.47;100380.03;5087457;28;20079;-28
2022/07/03 06:56:10;;;;;;;11.80;9.75;;;;;;;27.24;56.76;100362.19;5087601;28;20051;-33
2022/07/03 06:58:35;;;;;;;13.10;9.30;;;;;;;27.43;55.87;100374.72;5087742;28;20020;-28
2022/07/03 07:01:01;;;;;;;12.02;9.38;;;;;;;27.56;53.86;100370.97;5069115;28;20024;-28
2022/07/03 07:03:26;;;;;;;14.70;9.32;;;;;;;27.67;53.44;100346.00;5087208;28;20032;-28
2022/07/03 07:05:52;;;;;;;12.20;9.18;;;;;;;27.70;53.05;100356.28;5087410;28;20028;-28
2022/07/03 07:08:17;;;;;;;12.02;8.23;;;;;;;27.85;51.48;100361.25;5087044;28;20031;-28
2022/07/03 07:10:42;;;;;;;16.13;8.80;;;;;;;27.96;51.61;100370.72;5068898;28;20767;-28
2022/07/03 07:13:08;;;;;;;11.70;8.52;;;;;;;28.14;52.02;100374.19;5087346;28;20654;-28
2022/07/03 07:15:33;;;;;;;11.88;7.68;;;;;;;28.18;52.19;100366.91;5087199;28;20032;-35
2022/07/03 07:17:59;;;;;;;10.07;8.88;;;;;;;28.52;51.49;100370.63;5086921;28;20062;-30
2022/07/03 07:20:25;;;;;;;11.65;8.77;;;;;;;28.72;50.95;100363.53;5087248;28;20075;-30
2022/07/03 07:22:50;;;;;;;9.52;8.52;;;;;;;28.42;50.28;100349.84;5086752;28;20040;-29
2022/07/03 07:25:16;;;;;;;11.60;7.95;;;;;;;28.33;49.72;100356.53;5087110;28;20466;-34
2022/07/03 07:27:41;;;;;;;11.25;8.45;;;;;;;28.25;49.58;100347.19;5086872;28;20024;-29
2022/07/03 07:30:07;;;;;;;11.50;8.40;;;;;;;28.53;49.74;100365.97;5087026;28;20365;-30
2022/07/03 07:32:33;;;;;;;10.63;8.43;;;;;;;28.62;49.06;100361.19;5068676;28;20514;-29
2022/07/03 07:34:58;;;;;;;9.20;7.95;;;;;;;28.69;48.33;100353.25;5068588;28;20032;-28
2022/07/03 07:37:24;;;;;;;10.85;7.70;;;;;;;28.80;48.16;100362.69;5086655;28;20586;-29
2022/07/03 07:39:49;;;;;;;11.20;8.40;;;;;;;28.95;47.97;100364.03;5086186;28;20032;-28
2022/07/03 07:42:16;;;;;;;30.05;21.50;;;;;;;29.44;47.56;100355.19;5068344;28;20036;-32
2022/07/03 07:44:41;;;;;;;12.52;8.35;;;;;;;29.42;47.67;100357.47;5068450;28;20143;-32
2022/07/03 07:47:07;;;;;;;10.32;8.60;;;;;;;29.35;46.47;100351.75;5086728;28;20153;-28
2022/07/03 07:49:32;;;;;;;11.02;8.25;;;;;;;29.61;45.81;100357.75;5086752;28;20393;-28
2022/07/03 07:51:58;;;;;;;11.25;8.60;;;;;;;29.73;45.21;100351.53;5086415;28;20085;-29
2022/07/03 07:54:24;;;;;;;8.70;7.80;;;;;;;29.91;45.87;100357.59;5086627;28;20427;-30
2022/07/03 07:56:49;;;;;;;9.52;7.93;;;;;;;29.80;45.63;100339.94;5086693;28;20697;-27
2022/07/03 07:59:15;;;;;;;9.55;7.43;;;;;;;30.08;43.87;100355.75;5086617;28;20039;-28
2022/07/03 08:07:09;;;;;;;9.73;8.48;;;;;;;29.89;45.50;100345.34;5086438;28;20031;-33
2022/07/03 08:09:35;;;;;;;9.65;7.53;;;;;;;30.15;46.38;100345.78;5086254;28;20028;-29
2022/07/03 08:12:00;;;;;;;10.38;7.78;;;;;;;30.28;43.16;100352.09;5086334;28;20599;-31
2022/07/03 08:14:26;;;;;;;8.35;7.00;;;;;;;30.35;42.64;100344.09;5086272;28;20035;-30
2022/07/03 08:16:51;;;;;;;11.45;7.60;;;;;;;30.49;43.82;100354.75;5086306;28;20541;-30
2022/07/03 08:19:17;;;;;;;10.25;7.22;;;;;;;30.87;43.43;100349.94;5086247;28;20032;-29
2022/07/03 08:21:43;;;;;;;9.23;7.13;;;;;;;30.62;41.80;100358.25;5086089;28;20028;-28
2022/07/03 08:24:08;;;;;;;11.70;7.45;;;;;;;30.63;41.24;100359.88;5086445;28;20032;-28
2022/07/03 08:26:34;;;;;;;8.27;6.95;;;;;;;30.80;39.70;100359.59;5086159;28;20032;-30
2022/07/03 08:28:59;;;;;;;8.68;7.05;;;;;;;30.99;40.74;100355.44;5086020;28;20099;-29
2022/07/03 08:31:25;;;;;;;9.57;7.15;;;;;;;31.01;38.92;100347.63;5085870;28;20031;-31
2022/07/03 08:33:50;;;;;;;8.48;7.40;;;;;;;31.21;38.93;100357.63;5085865;28;20504;-31
2022/07/03 08:36:15;;;;;;;7.82;7.03;;;;;;;31.22;41.53;100352.91;5086239;28;20024;-33
2022/07/03 08:38:42;;;;;;;9.32;7.22;;;;;;;31.39;40.29;100363.63;5086210;28;20082;-28
2022/07/03 08:41:08;;;;;;;8.20;6.73;;;;;;;31.80;38.67;100360.78;5064132;28;20052;-32
2022/07/03 08:43:36;;;;;;;11.82;7.20;;;;;;;31.93;38.73;100365.03;5063983;28;20044;-31
2022/07/03 08:46:03;;;;;;;8.77;6.40;;;;;;;31.89;36.78;100361.38;5064634;28;20117;-29
2022/07/03 08:48:29;;;;;;;9.57;6.78;;;;;;;31.75;37.99;100336.22;5065745;28;20029;-28
2022/07/03 08:50:56;;;;;;;8.73;6.68;;;;;;;31.93;37.26;100356.75;5064598;28;20035;-30
2022/07/03 08:53:23;;;;;;;8.25;6.72;;;;;;;31.73;36.58;100355.06;5055677;28;20033;-29
2022/07/03 08:55:49;;;;;;;6.53;5.78;;;;;;;31.75;35.35;100355.50;5048322;28;20033;-30
2022/07/03 08:58:15;;;;;;;7.80;6.18;;;;;;;31.93;36.57;100359.50;5049501;28;20029;-29
2022/07/03 09:00:41;;;;;;;7.75;5.95;;;;;;;31.74;36.42;100342.91;5047856;28;20029;-36
2022/07/03 09:03:11;;;;;;;7.93;6.32;;;;;;;32.05;37.13;100341.31;5048239;28;20432;-29
2022/07/03 09:05:38;;;;;;;7.82;5.65;;;;;;;32.39;34.97;100359.06;5047969;28;20119;-29
2022/07/03 09:08:06;;;;;;;7.07;6.35;;;;;;;32.42;35.20;100359.09;5048157;28;20036;-31
2022/07/03 09:10:32;;;;;;;8.95;6.30;;;;;;;32.41;33.70;100363.03;5047972;28;20132;-29
2022/07/03 09:12:58;;;;;;;7.57;5.80;;;;;;;32.02;35.04;100353.88;5049297;28;20128;-34
2022/07/03 09:15:23;;;;;;;6.80;6.00;;;;;;;32.05;35.18;100344.06;5047414;28;20028;-32
2022/07/03 09:18:04;;;;;;;8.05;5.78;;;;;;;31.91;36.29;100341.72;5047826;28;20040;-31
2022/07/03 09:20:32;;;;;;;6.65;5.88;;;;;;;31.84;37.18;100345.13;5047679;28;20052;-33
2022/07/03 09:23:09;;;;;;;8.23;6.38;;;;;;;32.52;36.56;100351.44;5047692;28;20028;-34
2022/07/03 09:25:34;;;;;;;;;;;;;;;32.95;34.94;100352.38;5048085;28;20416;-31
2022/07/03 09:28:00;;;;;;;10.10;6.35;;;;;;;33.29;34.06;100347.16;5049013;28;20367;-31
2022/07/03 09:30:26;;;;;;;8.65;6.38;;;;;;;33.17;35.78;100339.81;5049266;28;20032;-30
2022/07/03 09:32:52;;;;;;;8.65;6.00;;;;;;;33.13;36.10;100336.97;5047565;28;20416;-32
2022/07/03 09:35:25;;;;;;;9.43;6.43;;;;;;;33.01;35.11;100339.88;5049139;28;20031;-30
2022/07/03 09:38:00;;;;;;;8.48;6.20;;;;;;;33.13;34.84;100331.44;5047422;28;20033;-30
2022/07/03 09:40:26;;;;;;;8.40;6.25;;;;;;;33.29;34.92;100334.13;5046951;28;20095;-31
2022/07/03 09:43:06;;;;;;;8.25;5.97;;;;;;;33.36;34.12;100336.19;5048755;28;20245;-29
2022/07/03 09:45:52;;;;;;;9.63;6.22;;;;;;;33.67;34.68;100326.09;5047234;28;20570;-28
2022/07/03 09:48:32;;;;;;;7.40;6.45;;;;;;;32.82;33.35;100322.13;5047407;28;20044;-29
2022/07/03 09:51:16;;;;;;;8.48;6.30;;;;;;;32.54;37.13;100322.34;5048534;28;20091;-30
2022/07/03 09:54:02;;;;;;;8.52;6.05;;;;;;;32.78;35.26;100315.75;5046994;28;20029;-28
2022/07/03 09:56:34;;;;;;;8.48;6.75;;;;;;;32.76;34.94;100309.78;5048784;28;20079;-29
2022/07/03 09:59:11;;;;;;;8.02;6.25;;;;;;;32.50;37.57;100304.06;5046859;28;20425;-30
2022/07/03 10:01:39;;;;;;;8.38;6.43;;;;;;;32.64;35.57;100298.88;5048301;28;20029;-31
2022/07/03 10:04:19;;;;;;;9.65;6.68;;;;;;;32.91;35.39;100305.34;5047337;28;20060;-36
2022/07/03 10:06:56;;;;;;;7.70;6.40;;;;;;;33.50;33.63;100303.28;5046951;28;20480;-31
2022/07/03 10:09:23;;;;;;;;;;;;;;;33.39;35.12;100305.06;5047103;28;20025;-31
2022/07/03 10:11:50;;;;;;;25.27;15.80;;;;;;;33.16;34.58;100300.34;5046608;28;19920;-30
2022/07/03 10:14:19;;;;;;;8.93;7.57;;;;;;;33.07;34.06;100285.91;5047944;28;20043;-32
2022/07/03 10:16:44;;;;;;;33.55;20.67;;;;;;;32.81;34.77;100300.41;5046737;28;20141;-37
2022/07/03 10:19:14;;;;;;;11.57;7.80;;;;;;;32.50;34.62;100284.75;5046604;28;20105;-29
2022/07/03 10:21:42;;;;;;;17.02;11.77;;;;;;;32.52;35.80;100296.22;5046520;28;20029;-33
2022/07/03 10:24:09;;;;;;;10.05;7.72;;;;;;;32.80;35.84;100285.00;5046587;28;20783;-30
2022/07/03 10:26:35;;;;;;;9.07;7.00;;;;;;;32.57;34.62;100290.44;5048283;28;20123;-33
2022/07/03 10:29:02;;;;;;;14.38;10.23;;;;;;;32.60;35.92;100271.19;5048485;28;20108;-29
2022/07/03 10:31:28;;;;;;;10.45;8.30;;;;;;;33.42;36.37;100271.94;5046215;28;20029;-30
2022/07/03 10:33:53;;;;;;;17.65;10.02;;;;;;;33.79;34.92;100274.16;5046415;28;20101;-32
2022/07/03 10:36:20;;;;;;;47.70;31.35;;;;;;;34.47;35.44;100270.75;5063022;28;20025;-31
2022/07/03 10:38:48;;;;;;;8.10;6.22;;;;;;;35.01;32.33;100278.53;5046227;28;20060;-31
2022/07/03 10:46:44;;;;;;;7.65;5.53;;;;;;;35.81;29.90;100255.88;5067616;28;20561;-36
2022/07/03 10:49:11;;;;;;;17.52;11.98;;;;;;;35.76;30.18;100263.81;5067143;28;20025;-30
2022/07/03 10:52:00;;;;;;;9.40;6.93;;;;;;;35.44;30.08;100269.06;5049202;28;20048;-28
2022/07/03 10:54:25;;;;;;;20.17;12.20;;;;;;;35.31;32.31;100263.81;5049037;28;20665;-33
2022/07/03 10:57:00;;;;;;;10.50;5.82;;;;;;;34.56;31.60;100257.44;5067124;28;20040;-33
2022/07/03 10:59:31;;;;;;;16.25;11.32;;;;;;;34.82;32.63;100264.88;5066980;28;20112;-29
2022/07/03 11:02:36;;;;;;;12.13;5.22;;;;;;;35.90;30.61;100263.06;5067108;28;20024;-33
2022/07/03 11:05:01;;;;;;;7.65;4.68;;;;;;;35.70;28.83;100260.59;5077589;28;20860;-28
2022/07/03 11:07:43;;;;;;;5.63;4.40;;;;;;;35.53;28.55;100256.47;5086677;28;20027;-28
2022/07/03 11:10:09;;;;;;;7.38;4.65;;;;;;;35.91;29.03;100248.03;5068177;28;20058;-32
2022/07/03 11:13:00;;;;;;;6.90;4.50;;;;;;;34.96;29.42;100250.38;5069049;28;20126;-30
2022/07/03 11:15:42;;;;;;;7.47;4.85;;;;;;;35.44;29.86;100247.66;5086980;28;20032;-29
2022/07/03 11:18:07;;;;;;;10.20;4.63;;;;;;;34.75;29.77;100235.13;5068096;28;20160;-30
2022/07/03 11:20:36;;;;;;;7.78;4.13;;;;;;;35.30;28.54;100228.94;5086823;28;20034;-34
2022/07/03 11:23:18;;;;;;;7.97;4.72;;;;;;;35.76;29.79;100241.59;5068276;28;20117;-34
2022/07/03 11:25:48;;;;;;;9.00;4.68;;;;;;;35.39;28.48;100231.38;5068406;28;20798;-29
2022/07/03 11:28:32;;;;;;;7.72;4.70;;;;;;;35.88;28.83;100232.97;5068339;28;20032;-36
2022/07/03 11:31:16;;;;;;;10.52;5.00;;;;;;;36.26;28.39;100239.13;5086400;28;20035;-30
2022/07/03 11:33:54;;;;;;;6.53;4.68;;;;;;;36.06;28.01;100226.69;5067815;28;20051;-33
2022/07/03 11:36:27;;;;;;;8.07;4.90;;;;;;;35.96;28.40;100222.69;5068007;28;20554;-32
2022/07/03 11:38:55;;;;;;;8.57;5.10;;;;;;;36.19;27.37;100230.78;5067070;28;20096;-30